sensor_id;sensor_type;location;lat;lon;timestamp;P1;durP1;ratioP1;P2;durP2;ratioP2
73428;SDS011;61643;49.564;17.412;2023-05-23T00:00:42;5.10;;;3.22;;
73428;SDS011;61643;49.564;17.412;2023-05-23T00:03:09;6.07;;;3.47;;
73428;SDS011;61643;49.564;17.412;2023-05-23T00:05:35;5.57;;;3.40;;
73428;SDS011;61643;49.564;17.412;2023-05-23T00:08:01;5.80;;;3.40;;
73428;SDS011;61643;49.564;17.412;2023-05-23T00:10:27;5.53;;;3.35;;
73428;SDS011;61643;49.564;17.412;2023-05-23T00:12:53;5.18;;;3.47;;
73428;SDS011;61643;49.564;17.412;2023-05-23T00:15:19;6.43;;;4.05;;
73428;SDS011;61643;49.564;17.412;2023-05-23T00:17:47;5.15;;;3.38;;
73428;SDS011;61643;49.564;17.412;2023-05-23T00:20:12;5.38;;;3.40;;
73428;SDS011;61643;49.564;17.412;2023-05-23T00:22:38;6.82;;;3.60;;
73428;SDS011;61643;49.564;17.412;2023-05-23T00:25:10;5.65;;;3.63;;
73428;SDS011;61643;49.564;17.412;2023-05-23T00:27:36;4.55;;;3.35;;
73428;SDS011;61643;49.564;17.412;2023-05-23T00:30:02;8.57;;;3.60;;
73428;SDS011;61643;49.564;17.412;2023-05-23T00:32:28;6.28;;;3.50;;
73428;SDS011;61643;49.564;17.412;2023-05-23T00:34:54;7.95;;;3.45;;
73428;SDS011;61643;49.564;17.412;2023-05-23T00:37:21;6.13;;;3.30;;
73428;SDS011;61643;49.564;17.412;2023-05-23T00:39:47;10.10;;;3.60;;
73428;SDS011;61643;49.564;17.412;2023-05-23T00:42:13;6.05;;;3.72;;
73428;SDS011;61643;49.564;17.412;2023-05-23T00:44:39;7.32;;;3.30;;
73428;SDS011;61643;49.564;17.412;2023-05-23T00:47:05;5.85;;;3.78;;
73428;SDS011;61643;49.564;17.412;2023-05-23T00:49:33;4.85;;;3.70;;
73428;SDS011;61643;49.564;17.412;2023-05-23T00:51:59;5.70;;;3.53;;
73428;SDS011;61643;49.564;17.412;2023-05-23T00:54:27;8.35;;;3.83;;
73428;SDS011;61643;49.564;17.412;2023-05-23T00:56:55;5.47;;;3.83;;
73428;SDS011;61643;49.564;17.412;2023-05-23T00:59:23;5.32;;;3.90;;
73428;SDS011;61643;49.564;17.412;2023-05-23T01:01:50;5.95;;;3.80;;
73428;SDS011;61643;49.564;17.412;2023-05-23T01:04:19;6.95;;;4.05;;
73428;SDS011;61643;49.564;17.412;2023-05-23T01:06:45;5.15;;;3.65;;
73428;SDS011;61643;49.564;17.412;2023-05-23T01:09:14;8.43;;;4.10;;
73428;SDS011;61643;49.564;17.412;2023-05-23T01:11:47;8.55;;;4.00;;
73428;SDS011;61643;49.564;17.412;2023-05-23T01:14:18;8.63;;;3.97;;
73428;SDS011;61643;49.564;17.412;2023-05-23T01:16:59;8.60;;;3.88;;
73428;SDS011;61643;49.564;17.412;2023-05-23T01:28:36;7.75;;;3.75;;
73428;SDS011;61643;49.564;17.412;2023-05-23T01:31:05;6.88;;;3.63;;
73428;SDS011;61643;49.564;17.412;2023-05-23T01:33:34;5.28;;;3.50;;
73428;SDS011;61643;49.564;17.412;2023-05-23T01:36:02;6.50;;;3.75;;
73428;SDS011;61643;49.564;17.412;2023-05-23T01:38:29;7.75;;;3.70;;
73428;SDS011;61643;49.564;17.412;2023-05-23T01:40:55;6.28;;;3.88;;
73428;SDS011;61643;49.564;17.412;2023-05-23T01:43:21;6.15;;;4.03;;
73428;SDS011;61643;49.564;17.412;2023-05-23T01:45:48;5.80;;;3.80;;
73428;SDS011;61643;49.564;17.412;2023-05-23T01:48:15;6.28;;;3.70;;
73428;SDS011;61643;49.564;17.412;2023-05-23T01:50:42;5.55;;;3.28;;
73428;SDS011;61643;49.564;17.412;2023-05-23T01:53:13;5.22;;;3.90;;
73428;SDS011;61643;49.564;17.412;2023-05-23T01:55:41;5.50;;;3.60;;
73428;SDS011;61643;49.564;17.412;2023-05-23T01:58:07;8.02;;;4.15;;
73428;SDS011;61643;49.564;17.412;2023-05-23T02:00:33;7.20;;;3.88;;
73428;SDS011;61643;49.564;17.412;2023-05-23T02:02:59;5.00;;;3.40;;
73428;SDS011;61643;49.564;17.412;2023-05-23T02:05:25;6.55;;;3.88;;
73428;SDS011;61643;49.564;17.412;2023-05-23T02:07:51;5.72;;;3.67;;
73428;SDS011;61643;49.564;17.412;2023-05-23T02:10:18;4.40;;;3.30;;
73428;SDS011;61643;49.564;17.412;2023-05-23T02:12:44;7.00;;;3.70;;
73428;SDS011;61643;49.564;17.412;2023-05-23T02:15:10;6.43;;;3.53;;
73428;SDS011;61643;49.564;17.412;2023-05-23T02:17:36;5.07;;;3.58;;
73428;SDS011;61643;49.564;17.412;2023-05-23T02:20:03;5.90;;;3.53;;
73428;SDS011;61643;49.564;17.412;2023-05-23T02:22:30;6.45;;;3.92;;
73428;SDS011;61643;49.564;17.412;2023-05-23T02:24:56;5.22;;;3.45;;
73428;SDS011;61643;49.564;17.412;2023-05-23T02:27:22;5.80;;;3.90;;
73428;SDS011;61643;49.564;17.412;2023-05-23T02:29:49;5.85;;;3.88;;
73428;SDS011;61643;49.564;17.412;2023-05-23T02:32:15;7.63;;;3.55;;
73428;SDS011;61643;49.564;17.412;2023-05-23T02:34:41;7.55;;;3.55;;
73428;SDS011;61643;49.564;17.412;2023-05-23T02:37:12;5.38;;;3.67;;
73428;SDS011;61643;49.564;17.412;2023-05-23T02:39:38;5.47;;;3.97;;
73428;SDS011;61643;49.564;17.412;2023-05-23T02:42:04;7.50;;;3.92;;
73428;SDS011;61643;49.564;17.412;2023-05-23T02:44:30;5.68;;;3.53;;
73428;SDS011;61643;49.564;17.412;2023-05-23T02:46:56;6.88;;;3.55;;
73428;SDS011;61643;49.564;17.412;2023-05-23T02:49:22;5.53;;;3.60;;
73428;SDS011;61643;49.564;17.412;2023-05-23T02:51:48;5.68;;;3.85;;
73428;SDS011;61643;49.564;17.412;2023-05-23T02:54:15;8.00;;;3.78;;
73428;SDS011;61643;49.564;17.412;2023-05-23T02:56:41;5.85;;;4.03;;
73428;SDS011;61643;49.564;17.412;2023-05-23T02:59:07;9.32;;;3.88;;
73428;SDS011;61643;49.564;17.412;2023-05-23T03:01:33;5.85;;;3.50;;
73428;SDS011;61643;49.564;17.412;2023-05-23T03:03:59;8.63;;;4.50;;
73428;SDS011;61643;49.564;17.412;2023-05-23T03:06:25;6.20;;;3.97;;
73428;SDS011;61643;49.564;17.412;2023-05-23T03:08:52;6.55;;;4.00;;
73428;SDS011;61643;49.564;17.412;2023-05-23T03:11:18;7.80;;;3.88;;
73428;SDS011;61643;49.564;17.412;2023-05-23T03:13:43;6.93;;;4.03;;
73428;SDS011;61643;49.564;17.412;2023-05-23T03:16:09;8.50;;;3.85;;
73428;SDS011;61643;49.564;17.412;2023-05-23T03:18:37;6.65;;;3.90;;
73428;SDS011;61643;49.564;17.412;2023-05-23T03:21:06;7.65;;;4.43;;
73428;SDS011;61643;49.564;17.412;2023-05-23T03:23:32;6.10;;;3.88;;
73428;SDS011;61643;49.564;17.412;2023-05-23T03:26:01;7.05;;;4.10;;
73428;SDS011;61643;49.564;17.412;2023-05-23T03:28:31;7.30;;;3.85;;
73428;SDS011;61643;49.564;17.412;2023-05-23T03:30:57;6.82;;;4.10;;
73428;SDS011;61643;49.564;17.412;2023-05-23T03:33:23;8.52;;;4.03;;
73428;SDS011;61643;49.564;17.412;2023-05-23T03:35:49;6.35;;;3.72;;
73428;SDS011;61643;49.564;17.412;2023-05-23T03:38:16;5.70;;;4.03;;
73428;SDS011;61643;49.564;17.412;2023-05-23T03:40:41;7.85;;;3.78;;
73428;SDS011;61643;49.564;17.412;2023-05-23T03:43:07;8.20;;;3.90;;
73428;SDS011;61643;49.564;17.412;2023-05-23T03:45:33;5.32;;;3.70;;
73428;SDS011;61643;49.564;17.412;2023-05-23T03:48:00;6.18;;;3.67;;
73428;SDS011;61643;49.564;17.412;2023-05-23T03:50:26;6.03;;;3.70;;
73428;SDS011;61643;49.564;17.412;2023-05-23T03:52:52;6.85;;;3.40;;
73428;SDS011;61643;49.564;17.412;2023-05-23T03:55:21;6.78;;;3.28;;
73428;SDS011;61643;49.564;17.412;2023-05-23T03:57:48;7.30;;;3.70;;
73428;SDS011;61643;49.564;17.412;2023-05-23T04:00:16;6.80;;;4.00;;
73428;SDS011;61643;49.564;17.412;2023-05-23T04:02:46;7.78;;;4.25;;
73428;SDS011;61643;49.564;17.412;2023-05-23T04:05:12;8.02;;;3.85;;
73428;SDS011;61643;49.564;17.412;2023-05-23T04:07:38;5.97;;;4.30;;
73428;SDS011;61643;49.564;17.412;2023-05-23T04:10:04;7.40;;;3.97;;
73428;SDS011;61643;49.564;17.412;2023-05-23T04:12:31;6.40;;;4.40;;
73428;SDS011;61643;49.564;17.412;2023-05-23T04:14:57;5.25;;;3.72;;
73428;SDS011;61643;49.564;17.412;2023-05-23T04:17:23;10.25;;;4.25;;
73428;SDS011;61643;49.564;17.412;2023-05-23T04:19:50;6.50;;;3.42;;
73428;SDS011;61643;49.564;17.412;2023-05-23T04:22:16;7.78;;;3.83;;
73428;SDS011;61643;49.564;17.412;2023-05-23T04:24:42;10.23;;;4.10;;
73428;SDS011;61643;49.564;17.412;2023-05-23T04:27:08;5.85;;;3.88;;
73428;SDS011;61643;49.564;17.412;2023-05-23T04:29:34;10.02;;;4.15;;
73428;SDS011;61643;49.564;17.412;2023-05-23T04:32:01;8.27;;;4.20;;
73428;SDS011;61643;49.564;17.412;2023-05-23T04:34:27;9.73;;;3.92;;
73428;SDS011;61643;49.564;17.412;2023-05-23T04:36:53;9.40;;;3.30;;
73428;SDS011;61643;49.564;17.412;2023-05-23T04:39:19;11.75;;;4.13;;
73428;SDS011;61643;49.564;17.412;2023-05-23T04:41:45;6.47;;;3.60;;
73428;SDS011;61643;49.564;17.412;2023-05-23T04:44:11;6.18;;;4.05;;
73428;SDS011;61643;49.564;17.412;2023-05-23T04:46:39;7.80;;;3.80;;
73428;SDS011;61643;49.564;17.412;2023-05-23T04:49:09;5.88;;;4.15;;
73428;SDS011;61643;49.564;17.412;2023-05-23T04:51:35;9.00;;;4.07;;
73428;SDS011;61643;49.564;17.412;2023-05-23T04:54:02;5.85;;;3.42;;
73428;SDS011;61643;49.564;17.412;2023-05-23T04:56:28;8.60;;;3.97;;
73428;SDS011;61643;49.564;17.412;2023-05-23T04:58:54;7.50;;;3.95;;
73428;SDS011;61643;49.564;17.412;2023-05-23T05:01:20;7.22;;;4.10;;
73428;SDS011;61643;49.564;17.412;2023-05-23T05:03:50;7.97;;;4.22;;
73428;SDS011;61643;49.564;17.412;2023-05-23T05:06:16;5.50;;;4.20;;
73428;SDS011;61643;49.564;17.412;2023-05-23T05:08:43;6.05;;;3.95;;
73428;SDS011;61643;49.564;17.412;2023-05-23T05:11:09;7.55;;;4.07;;
73428;SDS011;61643;49.564;17.412;2023-05-23T05:13:35;7.07;;;4.07;;
73428;SDS011;61643;49.564;17.412;2023-05-23T05:16:01;8.10;;;4.25;;
73428;SDS011;61643;49.564;17.412;2023-05-23T05:18:28;8.93;;;4.80;;
73428;SDS011;61643;49.564;17.412;2023-05-23T05:20:55;8.23;;;4.25;;
73428;SDS011;61643;49.564;17.412;2023-05-23T05:23:23;8.98;;;4.18;;
73428;SDS011;61643;49.564;17.412;2023-05-23T05:25:50;12.30;;;4.68;;
73428;SDS011;61643;49.564;17.412;2023-05-23T05:28:16;9.35;;;4.78;;
73428;SDS011;61643;49.564;17.412;2023-05-23T05:30:42;12.43;;;4.60;;
73428;SDS011;61643;49.564;17.412;2023-05-23T05:33:10;8.75;;;4.60;;
73428;SDS011;61643;49.564;17.412;2023-05-23T05:35:36;9.23;;;4.80;;
73428;SDS011;61643;49.564;17.412;2023-05-23T05:38:05;9.70;;;5.03;;
73428;SDS011;61643;49.564;17.412;2023-05-23T05:40:32;10.10;;;5.40;;
73428;SDS011;61643;49.564;17.412;2023-05-23T05:42:59;11.30;;;5.28;;
73428;SDS011;61643;49.564;17.412;2023-05-23T05:45:25;11.75;;;5.55;;
73428;SDS011;61643;49.564;17.412;2023-05-23T05:47:51;12.27;;;5.03;;
73428;SDS011;61643;49.564;17.412;2023-05-23T05:50:17;12.43;;;5.63;;
73428;SDS011;61643;49.564;17.412;2023-05-23T05:52:44;10.05;;;5.00;;
73428;SDS011;61643;49.564;17.412;2023-05-23T05:55:11;11.43;;;5.32;;
73428;SDS011;61643;49.564;17.412;2023-05-23T05:57:37;10.95;;;5.38;;
73428;SDS011;61643;49.564;17.412;2023-05-23T06:00:07;10.05;;;5.45;;
73428;SDS011;61643;49.564;17.412;2023-05-23T06:02:39;14.38;;;5.53;;
73428;SDS011;61643;49.564;17.412;2023-05-23T06:05:09;13.02;;;5.30;;
73428;SDS011;61643;49.564;17.412;2023-05-23T06:07:37;11.00;;;5.60;;
73428;SDS011;61643;49.564;17.412;2023-05-23T06:10:03;8.95;;;4.78;;
73428;SDS011;61643;49.564;17.412;2023-05-23T06:12:30;15.88;;;5.82;;
73428;SDS011;61643;49.564;17.412;2023-05-23T06:14:56;12.48;;;5.22;;
73428;SDS011;61643;49.564;17.412;2023-05-23T06:17:22;7.72;;;4.65;;
73428;SDS011;61643;49.564;17.412;2023-05-23T06:19:48;12.02;;;5.53;;
73428;SDS011;61643;49.564;17.412;2023-05-23T06:22:13;10.98;;;5.43;;
73428;SDS011;61643;49.564;17.412;2023-05-23T06:24:39;12.02;;;5.18;;
73428;SDS011;61643;49.564;17.412;2023-05-23T06:27:05;10.27;;;4.75;;
73428;SDS011;61643;49.564;17.412;2023-05-23T06:29:31;7.75;;;5.05;;
73428;SDS011;61643;49.564;17.412;2023-05-23T06:31:57;8.63;;;4.45;;
73428;SDS011;61643;49.564;17.412;2023-05-23T06:34:23;9.35;;;4.72;;
73428;SDS011;61643;49.564;17.412;2023-05-23T06:36:49;10.88;;;5.05;;
73428;SDS011;61643;49.564;17.412;2023-05-23T06:39:15;8.38;;;4.53;;
73428;SDS011;61643;49.564;17.412;2023-05-23T06:41:41;8.23;;;4.88;;
73428;SDS011;61643;49.564;17.412;2023-05-23T06:44:07;9.90;;;5.05;;
73428;SDS011;61643;49.564;17.412;2023-05-23T06:46:33;9.38;;;4.75;;
73428;SDS011;61643;49.564;17.412;2023-05-23T06:48:59;9.75;;;5.28;;
73428;SDS011;61643;49.564;17.412;2023-05-23T06:51:25;11.68;;;5.53;;
73428;SDS011;61643;49.564;17.412;2023-05-23T06:53:52;10.63;;;4.85;;
73428;SDS011;61643;49.564;17.412;2023-05-23T06:56:18;10.40;;;5.40;;
73428;SDS011;61643;49.564;17.412;2023-05-23T06:58:44;9.35;;;4.97;;
73428;SDS011;61643;49.564;17.412;2023-05-23T07:01:10;10.18;;;4.97;;
73428;SDS011;61643;49.564;17.412;2023-05-23T07:03:36;10.63;;;5.18;;
73428;SDS011;61643;49.564;17.412;2023-05-23T07:06:06;9.10;;;4.68;;
73428;SDS011;61643;49.564;17.412;2023-05-23T07:08:32;8.40;;;4.88;;
73428;SDS011;61643;49.564;17.412;2023-05-23T07:10:58;8.20;;;4.60;;
73428;SDS011;61643;49.564;17.412;2023-05-23T07:13:24;9.40;;;4.45;;
73428;SDS011;61643;49.564;17.412;2023-05-23T07:15:50;9.23;;;4.78;;
73428;SDS011;61643;49.564;17.412;2023-05-23T07:18:16;9.57;;;4.50;;
73428;SDS011;61643;49.564;17.412;2023-05-23T07:20:42;7.70;;;4.90;;
73428;SDS011;61643;49.564;17.412;2023-05-23T07:23:08;8.45;;;4.32;;
73428;SDS011;61643;49.564;17.412;2023-05-23T07:25:34;9.23;;;4.05;;
73428;SDS011;61643;49.564;17.412;2023-05-23T07:28:00;15.13;;;4.57;;
73428;SDS011;61643;49.564;17.412;2023-05-23T07:30:26;6.35;;;3.83;;
73428;SDS011;61643;49.564;17.412;2023-05-23T07:32:52;6.85;;;4.20;;
73428;SDS011;61643;49.564;17.412;2023-05-23T07:35:19;5.88;;;4.07;;
73428;SDS011;61643;49.564;17.412;2023-05-23T07:37:51;7.13;;;4.20;;
73428;SDS011;61643;49.564;17.412;2023-05-23T07:40:17;14.45;;;4.30;;
73428;SDS011;61643;49.564;17.412;2023-05-23T07:42:44;5.88;;;4.00;;
73428;SDS011;61643;49.564;17.412;2023-05-23T07:45:10;6.00;;;4.00;;
73428;SDS011;61643;49.564;17.412;2023-05-23T07:47:36;10.02;;;4.85;;
73428;SDS011;61643;49.564;17.412;2023-05-23T07:50:02;9.70;;;4.50;;
73428;SDS011;61643;49.564;17.412;2023-05-23T07:52:29;10.32;;;4.22;;
73428;SDS011;61643;49.564;17.412;2023-05-23T07:54:56;8.32;;;4.18;;
73428;SDS011;61643;49.564;17.412;2023-05-23T07:57:23;7.05;;;4.45;;
73428;SDS011;61643;49.564;17.412;2023-05-23T07:59:50;10.15;;;4.55;;
73428;SDS011;61643;49.564;17.412;2023-05-23T08:02:17;8.15;;;4.82;;
73428;SDS011;61643;49.564;17.412;2023-05-23T08:04:43;7.10;;;4.85;;
73428;SDS011;61643;49.564;17.412;2023-05-23T08:07:10;12.02;;;4.20;;
73428;SDS011;61643;49.564;17.412;2023-05-23T08:09:37;6.35;;;3.78;;
73428;SDS011;61643;49.564;17.412;2023-05-23T08:12:05;8.30;;;4.55;;
73428;SDS011;61643;49.564;17.412;2023-05-23T08:14:32;7.38;;;4.10;;
73428;SDS011;61643;49.564;17.412;2023-05-23T08:16:58;7.15;;;4.05;;
73428;SDS011;61643;49.564;17.412;2023-05-23T08:19:24;8.93;;;4.45;;
73428;SDS011;61643;49.564;17.412;2023-05-23T08:21:50;6.60;;;4.38;;
73428;SDS011;61643;49.564;17.412;2023-05-23T08:24:18;7.25;;;4.38;;
73428;SDS011;61643;49.564;17.412;2023-05-23T08:26:44;6.57;;;4.50;;
73428;SDS011;61643;49.564;17.412;2023-05-23T08:29:11;10.57;;;5.13;;
73428;SDS011;61643;49.564;17.412;2023-05-23T08:31:38;7.00;;;4.32;;
73428;SDS011;61643;49.564;17.412;2023-05-23T08:34:04;9.65;;;4.53;;
73428;SDS011;61643;49.564;17.412;2023-05-23T08:36:30;11.07;;;5.10;;
73428;SDS011;61643;49.564;17.412;2023-05-23T08:39:01;6.97;;;4.43;;
73428;SDS011;61643;49.564;17.412;2023-05-23T08:41:28;10.10;;;4.63;;
73428;SDS011;61643;49.564;17.412;2023-05-23T08:43:58;9.45;;;5.03;;
73428;SDS011;61643;49.564;17.412;2023-05-23T08:46:24;12.35;;;5.18;;
73428;SDS011;61643;49.564;17.412;2023-05-23T08:48:52;9.95;;;5.07;;
73428;SDS011;61643;49.564;17.412;2023-05-23T08:51:24;8.93;;;5.18;;
73428;SDS011;61643;49.564;17.412;2023-05-23T08:53:51;8.43;;;4.85;;
73428;SDS011;61643;49.564;17.412;2023-05-23T08:56:18;8.75;;;5.00;;
73428;SDS011;61643;49.564;17.412;2023-05-23T08:58:45;7.97;;;4.68;;
73428;SDS011;61643;49.564;17.412;2023-05-23T09:01:12;6.15;;;4.63;;
73428;SDS011;61643;49.564;17.412;2023-05-23T09:03:39;9.15;;;5.55;;
73428;SDS011;61643;49.564;17.412;2023-05-23T09:06:07;8.23;;;5.38;;
73428;SDS011;61643;49.564;17.412;2023-05-23T09:08:34;10.93;;;5.60;;
73428;SDS011;61643;49.564;17.412;2023-05-23T09:11:01;8.60;;;5.30;;
73428;SDS011;61643;49.564;17.412;2023-05-23T09:13:29;10.40;;;6.03;;
73428;SDS011;61643;49.564;17.412;2023-05-23T09:18:41;9.32;;;5.50;;
73428;SDS011;61643;49.564;17.412;2023-05-23T09:21:09;9.98;;;5.30;;
73428;SDS011;61643;49.564;17.412;2023-05-23T09:23:36;9.68;;;5.40;;
73428;SDS011;61643;49.564;17.412;2023-05-23T09:26:06;9.60;;;5.57;;
73428;SDS011;61643;49.564;17.412;2023-05-23T09:28:34;8.30;;;5.68;;
73428;SDS011;61643;49.564;17.412;2023-05-23T09:31:05;8.20;;;5.57;;
73428;SDS011;61643;49.564;17.412;2023-05-23T09:33:41;8.30;;;5.40;;
73428;SDS011;61643;49.564;17.412;2023-05-23T09:36:07;11.27;;;5.78;;
73428;SDS011;61643;49.564;17.412;2023-05-23T09:38:37;7.43;;;5.35;;
73428;SDS011;61643;49.564;17.412;2023-05-23T09:41:04;9.63;;;5.45;;
73428;SDS011;61643;49.564;17.412;2023-05-23T09:43:30;10.23;;;5.50;;
73428;SDS011;61643;49.564;17.412;2023-05-23T09:46:00;9.18;;;6.38;;
73428;SDS011;61643;49.564;17.412;2023-05-23T09:48:32;12.05;;;5.72;;
73428;SDS011;61643;49.564;17.412;2023-05-23T09:50:58;10.45;;;5.40;;
73428;SDS011;61643;49.564;17.412;2023-05-23T09:53:28;11.32;;;5.93;;
73428;SDS011;61643;49.564;17.412;2023-05-23T09:55:54;10.77;;;5.70;;
73428;SDS011;61643;49.564;17.412;2023-05-23T09:58:23;7.90;;;5.30;;
73428;SDS011;61643;49.564;17.412;2023-05-23T10:00:52;10.75;;;5.68;;
73428;SDS011;61643;49.564;17.412;2023-05-23T10:03:21;11.10;;;5.25;;
73428;SDS011;61643;49.564;17.412;2023-05-23T10:05:55;11.85;;;5.47;;
73428;SDS011;61643;49.564;17.412;2023-05-23T10:08:26;9.02;;;5.43;;
73428;SDS011;61643;49.564;17.412;2023-05-23T10:14:06;10.57;;;6.13;;
73428;SDS011;61643;49.564;17.412;2023-05-23T10:19:41;10.75;;;5.75;;
73428;SDS011;61643;49.564;17.412;2023-05-23T10:22:11;11.10;;;5.95;;
73428;SDS011;61643;49.564;17.412;2023-05-23T10:24:38;10.55;;;5.90;;
73428;SDS011;61643;49.564;17.412;2023-05-23T10:27:05;9.80;;;7.00;;
73428;SDS011;61643;49.564;17.412;2023-05-23T10:29:32;8.43;;;5.88;;
73428;SDS011;61643;49.564;17.412;2023-05-23T10:31:58;13.82;;;6.22;;
73428;SDS011;61643;49.564;17.412;2023-05-23T10:37:39;9.60;;;5.78;;
73428;SDS011;61643;49.564;17.412;2023-05-23T10:42:27;9.73;;;4.90;;
73428;SDS011;61643;49.564;17.412;2023-05-23T10:47:47;6.95;;;4.82;;
73428;SDS011;61643;49.564;17.412;2023-05-23T10:50:15;8.77;;;5.75;;
73428;SDS011;61643;49.564;17.412;2023-05-23T10:52:59;7.57;;;5.32;;
73428;SDS011;61643;49.564;17.412;2023-05-23T10:55:32;6.95;;;5.28;;
73428;SDS011;61643;49.564;17.412;2023-05-23T10:58:08;10.77;;;5.00;;
73428;SDS011;61643;49.564;17.412;2023-05-23T11:05:59;11.20;;;4.68;;
73428;SDS011;61643;49.564;17.412;2023-05-23T11:10:58;9.23;;;4.97;;
73428;SDS011;61643;49.564;17.412;2023-05-23T11:13:25;8.52;;;5.50;;
73428;SDS011;61643;49.564;17.412;2023-05-23T11:16:26;7.65;;;4.70;;
73428;SDS011;61643;49.564;17.412;2023-05-23T11:19:38;9.43;;;5.68;;
73428;SDS011;61643;49.564;17.412;2023-05-23T11:21:45;6.80;;;5.03;;
73428;SDS011;61643;49.564;17.412;2023-05-23T11:24:15;7.28;;;5.13;;
73428;SDS011;61643;49.564;17.412;2023-05-23T11:26:50;8.52;;;5.63;;
73428;SDS011;61643;49.564;17.412;2023-05-23T11:29:25;7.18;;;5.30;;
73428;SDS011;61643;49.564;17.412;2023-05-23T11:31:53;9.60;;;5.60;;
73428;SDS011;61643;49.564;17.412;2023-05-23T11:34:21;7.88;;;5.30;;
73428;SDS011;61643;49.564;17.412;2023-05-23T11:36:51;7.65;;;5.22;;
73428;SDS011;61643;49.564;17.412;2023-05-23T11:39:19;6.72;;;5.28;;
73428;SDS011;61643;49.564;17.412;2023-05-23T11:41:49;8.82;;;5.63;;
73428;SDS011;61643;49.564;17.412;2023-05-23T11:44:23;10.07;;;5.68;;
73428;SDS011;61643;49.564;17.412;2023-05-23T11:46:59;8.60;;;5.85;;
73428;SDS011;61643;49.564;17.412;2023-05-23T11:49:31;7.75;;;5.13;;
73428;SDS011;61643;49.564;17.412;2023-05-23T11:52:00;11.30;;;6.13;;
73428;SDS011;61643;49.564;17.412;2023-05-23T11:54:27;9.38;;;5.85;;
73428;SDS011;61643;49.564;17.412;2023-05-23T11:56:55;12.20;;;6.38;;
73428;SDS011;61643;49.564;17.412;2023-05-23T11:59:21;7.65;;;5.53;;
73428;SDS011;61643;49.564;17.412;2023-05-23T12:01:48;7.68;;;5.70;;
73428;SDS011;61643;49.564;17.412;2023-05-23T12:04:14;7.43;;;5.72;;
73428;SDS011;61643;49.564;17.412;2023-05-23T12:06:40;11.48;;;5.75;;
73428;SDS011;61643;49.564;17.412;2023-05-23T12:09:07;8.20;;;5.93;;
73428;SDS011;61643;49.564;17.412;2023-05-23T12:11:36;8.90;;;5.57;;
73428;SDS011;61643;49.564;17.412;2023-05-23T12:14:04;9.90;;;5.55;;
73428;SDS011;61643;49.564;17.412;2023-05-23T12:16:31;10.27;;;6.63;;
73428;SDS011;61643;49.564;17.412;2023-05-23T12:18:58;9.25;;;6.30;;
73428;SDS011;61643;49.564;17.412;2023-05-23T12:21:26;8.23;;;5.43;;
73428;SDS011;61643;49.564;17.412;2023-05-23T12:24:17;10.00;;;5.80;;
73428;SDS011;61643;49.564;17.412;2023-05-23T12:26:45;6.95;;;5.78;;
73428;SDS011;61643;49.564;17.412;2023-05-23T12:29:15;9.18;;;6.10;;
73428;SDS011;61643;49.564;17.412;2023-05-23T12:31:43;8.65;;;6.13;;
73428;SDS011;61643;49.564;17.412;2023-05-23T12:34:10;7.50;;;5.35;;
73428;SDS011;61643;49.564;17.412;2023-05-23T12:36:38;10.77;;;6.10;;
73428;SDS011;61643;49.564;17.412;2023-05-23T12:39:04;8.35;;;5.90;;
73428;SDS011;61643;49.564;17.412;2023-05-23T12:41:31;7.53;;;5.70;;
73428;SDS011;61643;49.564;17.412;2023-05-23T12:43:58;7.63;;;6.10;;
73428;SDS011;61643;49.564;17.412;2023-05-23T12:46:24;10.30;;;6.00;;
73428;SDS011;61643;49.564;17.412;2023-05-23T12:48:51;8.57;;;6.35;;
73428;SDS011;61643;49.564;17.412;2023-05-23T12:51:18;9.15;;;5.88;;
73428;SDS011;61643;49.564;17.412;2023-05-23T12:53:45;9.30;;;5.97;;
73428;SDS011;61643;49.564;17.412;2023-05-23T12:56:11;8.55;;;6.15;;
73428;SDS011;61643;49.564;17.412;2023-05-23T12:58:37;7.40;;;6.05;;
73428;SDS011;61643;49.564;17.412;2023-05-23T13:01:03;12.57;;;6.55;;
73428;SDS011;61643;49.564;17.412;2023-05-23T13:03:29;8.35;;;6.38;;
73428;SDS011;61643;49.564;17.412;2023-05-23T13:05:56;8.82;;;6.47;;
73428;SDS011;61643;49.564;17.412;2023-05-23T13:08:23;8.90;;;6.15;;
73428;SDS011;61643;49.564;17.412;2023-05-23T13:10:49;8.13;;;5.55;;
73428;SDS011;61643;49.564;17.412;2023-05-23T13:13:15;8.55;;;5.60;;
73428;SDS011;61643;49.564;17.412;2023-05-23T13:15:41;10.48;;;6.25;;
73428;SDS011;61643;49.564;17.412;2023-05-23T13:18:07;10.95;;;6.25;;
73428;SDS011;61643;49.564;17.412;2023-05-23T13:20:33;8.77;;;5.82;;
73428;SDS011;61643;49.564;17.412;2023-05-23T13:22:59;7.75;;;5.63;;
73428;SDS011;61643;49.564;17.412;2023-05-23T13:25:25;8.48;;;5.93;;
73428;SDS011;61643;49.564;17.412;2023-05-23T13:27:52;9.30;;;6.25;;
73428;SDS011;61643;49.564;17.412;2023-05-23T13:30:19;7.10;;;5.38;;
73428;SDS011;61643;49.564;17.412;2023-05-23T13:32:45;8.07;;;5.80;;
73428;SDS011;61643;49.564;17.412;2023-05-23T13:35:11;8.35;;;5.35;;
73428;SDS011;61643;49.564;17.412;2023-05-23T13:37:37;7.88;;;5.32;;
73428;SDS011;61643;49.564;17.412;2023-05-23T13:40:03;8.20;;;5.60;;
73428;SDS011;61643;49.564;17.412;2023-05-23T13:42:30;6.57;;;4.68;;
73428;SDS011;61643;49.564;17.412;2023-05-23T13:44:56;7.40;;;5.10;;
73428;SDS011;61643;49.564;17.412;2023-05-23T13:47:22;7.82;;;4.88;;
73428;SDS011;61643;49.564;17.412;2023-05-23T13:49:48;6.45;;;5.00;;
73428;SDS011;61643;49.564;17.412;2023-05-23T13:52:14;7.50;;;4.90;;
73428;SDS011;61643;49.564;17.412;2023-05-23T13:54:40;5.68;;;4.30;;
73428;SDS011;61643;49.564;17.412;2023-05-23T13:57:06;7.93;;;5.43;;
73428;SDS011;61643;49.564;17.412;2023-05-23T13:59:32;7.20;;;4.93;;
73428;SDS011;61643;49.564;17.412;2023-05-23T14:01:58;7.15;;;4.80;;
73428;SDS011;61643;49.564;17.412;2023-05-23T14:04:24;11.23;;;5.43;;
73428;SDS011;61643;49.564;17.412;2023-05-23T14:06:50;7.78;;;5.30;;
73428;SDS011;61643;49.564;17.412;2023-05-23T14:09:16;8.07;;;4.90;;
73428;SDS011;61643;49.564;17.412;2023-05-23T14:11:42;7.82;;;5.07;;
73428;SDS011;61643;49.564;17.412;2023-05-23T14:14:09;6.60;;;4.88;;
73428;SDS011;61643;49.564;17.412;2023-05-23T14:16:35;6.15;;;4.47;;
73428;SDS011;61643;49.564;17.412;2023-05-23T14:19:01;7.47;;;4.72;;
73428;SDS011;61643;49.564;17.412;2023-05-23T14:21:27;5.50;;;4.28;;
73428;SDS011;61643;49.564;17.412;2023-05-23T14:23:53;5.82;;;4.63;;
73428;SDS011;61643;49.564;17.412;2023-05-23T14:26:19;5.78;;;4.32;;
73428;SDS011;61643;49.564;17.412;2023-05-23T14:28:45;6.93;;;4.60;;
73428;SDS011;61643;49.564;17.412;2023-05-23T14:31:11;7.53;;;5.28;;
73428;SDS011;61643;49.564;17.412;2023-05-23T14:33:37;7.60;;;4.75;;
73428;SDS011;61643;49.564;17.412;2023-05-23T14:36:03;10.23;;;5.30;;
73428;SDS011;61643;49.564;17.412;2023-05-23T14:38:29;7.10;;;4.65;;
73428;SDS011;61643;49.564;17.412;2023-05-23T14:40:55;7.72;;;4.20;;
73428;SDS011;61643;49.564;17.412;2023-05-23T14:43:21;8.25;;;4.60;;
73428;SDS011;61643;49.564;17.412;2023-05-23T14:45:47;7.18;;;4.75;;
73428;SDS011;61643;49.564;17.412;2023-05-23T14:48:13;7.70;;;4.38;;
73428;SDS011;61643;49.564;17.412;2023-05-23T14:50:39;5.13;;;3.50;;
73428;SDS011;61643;49.564;17.412;2023-05-23T14:53:05;5.22;;;3.70;;
73428;SDS011;61643;49.564;17.412;2023-05-23T14:55:31;4.85;;;3.97;;
73428;SDS011;61643;49.564;17.412;2023-05-23T14:57:57;4.53;;;3.70;;
73428;SDS011;61643;49.564;17.412;2023-05-23T15:00:23;4.90;;;3.25;;
73428;SDS011;61643;49.564;17.412;2023-05-23T15:02:49;4.53;;;3.17;;
73428;SDS011;61643;49.564;17.412;2023-05-23T15:05:16;6.55;;;3.45;;